Terminal Aerodrome Forecast
Issued by NWS Wilmington, OH

Current Version | Previous Version | Graphics & Text | Print | Product List | Glossary On
Versions: 1 2 3 4 5 6 7 8 9 10 11 12 13 14 15 16 17 18 19 20 21 22 23 24
199
FTUS41 KILN 111743
TAFCMH
TAF
KCMH 111743Z 1118/1218 19008KT P6SM BKN100
     FM120600 25010KT P6SM BKN100
     FM120900 29012G22KT P6SM VCSH OVC022
     FM121200 31016G31KT P6SM VCSH OVC018
     FM121600 31016G31KT P6SM VCSH BKN022=

USA.gov is the U.S. government's official web portal to all federal, state and local government web resources and services.